createdAt,value
2018-10-07T00:00:09.605Z,18.20
2018-10-07T00:02:36.872Z,12.07
2018-10-07T00:05:04.173Z,16.43
2018-10-07T00:07:31.484Z,13.43
2018-10-07T00:09:58.813Z,13.80
2018-10-07T00:12:26.117Z,12.33
2018-10-07T00:14:53.430Z,11.57
2018-10-07T00:17:20.713Z,11.10
2018-10-07T00:19:48.050Z,11.37
2018-10-07T00:22:15.340Z,11.77
2018-10-07T00:24:42.643Z,9.13
2018-10-07T00:27:09.958Z,7.97
2018-10-07T00:29:37.289Z,8.23
2018-10-07T00:32:10.400Z,10.13
2018-10-07T00:34:37.786Z,11.43
2018-10-07T00:37:05.197Z,8.53
2018-10-07T00:39:32.497Z,12.23
2018-10-07T00:41:59.821Z,11.77
2018-10-07T00:44:27.149Z,8.73
2018-10-07T00:46:54.840Z,10.43
2018-10-07T00:49:22.238Z,10.97
2018-10-07T00:51:49.583Z,8.53
2018-10-07T00:54:16.921Z,9.57
2018-10-07T00:56:44.236Z,7.83
2018-10-07T00:59:11.789Z,9.63
2018-10-07T01:01:39.117Z,10.90
2018-10-07T01:04:06.444Z,11.10
2018-10-07T01:06:33.746Z,8.53
2018-10-07T01:09:01.033Z,11.50
2018-10-07T01:11:28.320Z,11.47
2018-10-07T01:13:55.613Z,8.43
2018-10-07T01:16:22.900Z,8.90
2018-10-07T01:18:50.245Z,10.77
2018-10-07T01:21:17.591Z,8.17
2018-10-07T01:23:44.864Z,9.07
2018-10-07T01:26:12.461Z,9.47
2018-10-07T01:28:39.754Z,11.83
2018-10-07T01:31:07.045Z,8.53
2018-10-07T01:33:34.305Z,10.03
2018-10-07T01:36:01.574Z,14.17
2018-10-07T01:38:29.013Z,11.17
2018-10-07T01:40:56.309Z,11.47
2018-10-07T01:43:23.573Z,8.50
2018-10-07T01:45:50.874Z,27.33
2018-10-07T01:48:18.134Z,19.30
2018-10-07T01:50:45.429Z,14.60
2018-10-07T01:53:12.701Z,19.50
2018-10-07T01:55:39.974Z,16.60
2018-10-07T01:58:07.326Z,15.07
2018-10-07T02:00:34.642Z,13.33
2018-10-07T02:03:01.913Z,11.07
2018-10-07T02:05:29.189Z,8.37
2018-10-07T02:07:56.473Z,8.83
2018-10-07T02:10:23.741Z,7.83
2018-10-07T02:12:51.059Z,8.10
2018-10-07T02:15:18.327Z,7.80
2018-10-07T02:17:45.737Z,9.50
2018-10-07T02:20:13.030Z,8.70
2018-10-07T02:22:40.346Z,10.07
2018-10-07T02:25:07.695Z,6.90
2018-10-07T02:27:35.169Z,7.90
2018-10-07T02:30:02.552Z,8.20
2018-10-07T02:32:29.881Z,9.20
2018-10-07T02:34:57.208Z,9.20
2018-10-07T02:37:24.529Z,11.03
2018-10-07T02:39:51.857Z,7.43
2018-10-07T02:42:19.172Z,10.70
2018-10-07T02:44:46.526Z,7.60
2018-10-07T02:47:13.829Z,8.43
2018-10-07T02:49:41.131Z,10.67
2018-10-07T02:52:08.466Z,11.13
2018-10-07T02:54:35.815Z,11.13
2018-10-07T02:57:03.138Z,9.17
2018-10-07T02:59:30.527Z,9.33
2018-10-07T03:01:57.851Z,11.50
2018-10-07T03:04:25.211Z,8.30
2018-10-07T03:06:52.454Z,11.80
2018-10-07T03:09:19.734Z,8.53
2018-10-07T03:11:47.005Z,10.10
2018-10-07T03:14:14.258Z,8.80
2018-10-07T03:16:41.550Z,11.50
2018-10-07T03:19:08.808Z,9.20
2018-10-07T03:21:36.100Z,11.27
2018-10-07T03:24:03.456Z,11.17
2018-10-07T03:26:30.803Z,8.00
2018-10-07T03:28:58.064Z,10.23
2018-10-07T03:31:25.519Z,7.67
2018-10-07T03:33:52.786Z,9.13
2018-10-07T03:36:20.045Z,8.87
2018-10-07T03:38:47.305Z,7.67
2018-10-07T03:41:14.570Z,8.70
2018-10-07T03:43:41.829Z,8.53
2018-10-07T03:46:09.074Z,11.80
2018-10-07T03:48:36.336Z,14.03
2018-10-07T03:51:03.610Z,9.70
2018-10-07T03:53:30.860Z,8.70
2018-10-07T03:55:58.250Z,10.10
2018-10-07T03:58:25.542Z,10.03
2018-10-07T04:00:52.865Z,9.23
2018-10-07T04:03:20.177Z,9.83
2018-10-07T04:05:47.542Z,9.20
2018-10-07T04:08:14.880Z,9.87
2018-10-07T04:10:42.190Z,9.50
2018-10-07T04:13:09.585Z,8.47
2018-10-07T04:15:36.885Z,8.83
2018-10-07T04:18:04.360Z,9.90
2018-10-07T04:20:31.633Z,9.10
2018-10-07T04:22:58.929Z,9.33
2018-10-07T04:25:26.218Z,8.10
2018-10-07T04:27:53.521Z,9.20
2018-10-07T04:30:20.847Z,13.10
2018-10-07T04:32:48.146Z,7.53
2018-10-07T04:35:15.441Z,9.00
2018-10-07T04:37:42.758Z,11.80
2018-10-07T04:40:10.067Z,10.37
2018-10-07T04:42:37.366Z,10.83
2018-10-07T04:45:04.697Z,8.33
2018-10-07T04:47:31.999Z,11.83
2018-10-07T04:49:59.342Z,8.03
2018-10-07T04:52:26.632Z,10.50
2018-10-07T04:54:53.920Z,8.40
2018-10-07T04:57:21.198Z,11.20
2018-10-07T04:59:48.496Z,10.57
2018-10-07T05:02:15.773Z,13.33
2018-10-07T05:04:43.161Z,13.30
2018-10-07T05:07:10.561Z,12.50
2018-10-07T05:09:37.966Z,11.13
2018-10-07T05:12:07.376Z,12.73
2018-10-07T05:14:34.619Z,11.70
2018-10-07T05:17:02.401Z,14.53
2018-10-07T05:19:29.769Z,11.00
2018-10-07T05:21:57.060Z,11.37
2018-10-07T05:24:24.378Z,13.40
2018-10-07T05:26:51.743Z,13.77
2018-10-07T05:29:19.021Z,14.40
2018-10-07T05:31:46.288Z,14.40
2018-10-07T05:34:13.583Z,11.37
2018-10-07T05:36:40.961Z,15.63
2018-10-07T05:39:10.742Z,15.40
2018-10-07T05:41:38.089Z,14.13
2018-10-07T05:44:05.389Z,11.40
2018-10-07T05:46:32.695Z,12.60
2018-10-07T05:48:59.976Z,12.97
2018-10-07T05:51:27.308Z,15.03
2018-10-07T05:53:54.572Z,12.13
2018-10-07T05:56:21.876Z,18.97
2018-10-07T05:58:50.389Z,13.60
2018-10-07T06:01:29.940Z,11.77
2018-10-07T06:04:08.441Z,17.07
2018-10-07T06:06:35.952Z,14.53
2018-10-07T06:09:04.549Z,14.90
2018-10-07T06:11:31.893Z,12.53
2018-10-07T06:13:59.238Z,15.50
2018-10-07T06:16:26.562Z,21.17
2018-10-07T06:18:53.917Z,18.80
2018-10-07T06:21:21.262Z,14.97
2018-10-07T06:23:48.665Z,21.00
2018-10-07T06:26:16.022Z,14.07
2018-10-07T06:28:43.388Z,13.43
2018-10-07T06:31:10.715Z,15.10
2018-10-07T06:33:38.102Z,14.17
2018-10-07T06:36:05.440Z,13.67
2018-10-07T06:38:32.823Z,15.40
2018-10-07T06:41:00.144Z,18.17
2018-10-07T06:43:27.532Z,14.40
2018-10-07T06:45:54.982Z,15.10
2018-10-07T06:48:22.240Z,15.30
2018-10-07T06:50:49.554Z,15.70
2018-10-07T06:53:16.917Z,14.90
2018-10-07T06:55:44.354Z,16.40
2018-10-07T06:58:15.936Z,14.50
2018-10-07T07:00:43.250Z,17.90
2018-10-07T07:03:10.763Z,18.50
2018-10-07T07:05:38.133Z,17.40
2018-10-07T07:08:05.532Z,19.60
2018-10-07T07:10:32.816Z,17.77
2018-10-07T07:13:00.130Z,17.70
2018-10-07T07:15:27.747Z,18.03
2018-10-07T07:17:55.089Z,21.20
2018-10-07T07:20:22.450Z,18.17
2018-10-07T07:22:49.703Z,17.17
2018-10-07T07:25:17.009Z,17.30
2018-10-07T07:27:44.294Z,15.40
2018-10-07T07:30:11.677Z,17.87
2018-10-07T07:32:38.966Z,18.80
2018-10-07T07:35:07.102Z,19.63
2018-10-07T07:37:34.394Z,15.40
2018-10-07T07:40:01.729Z,18.10
2018-10-07T07:42:29.133Z,22.70
2018-10-07T07:44:56.452Z,15.87
2018-10-07T07:47:24.016Z,16.23
2018-10-07T07:49:51.366Z,17.07
2018-10-07T07:52:18.717Z,16.40
2018-10-07T07:54:46.137Z,16.23
2018-10-07T07:57:13.553Z,17.93
2018-10-07T07:59:40.840Z,16.10
2018-10-07T08:02:08.153Z,15.20
2018-10-07T08:04:36.802Z,16.90
2018-10-07T08:07:04.210Z,15.67
2018-10-07T08:09:31.509Z,19.70
2018-10-07T08:11:59.004Z,15.17
2018-10-07T08:14:26.398Z,15.57
2018-10-07T08:16:54.031Z,16.70
2018-10-07T08:19:21.381Z,13.87
2018-10-07T08:21:48.758Z,13.33
2018-10-07T08:24:16.413Z,16.13
2018-10-07T08:26:43.741Z,13.57
2018-10-07T08:29:11.104Z,15.67
2018-10-07T08:31:39.198Z,13.80
2018-10-07T08:34:06.822Z,12.50
2018-10-07T08:36:34.216Z,13.67
2018-10-07T08:39:01.536Z,20.50
2018-10-07T08:41:28.868Z,13.43
2018-10-07T08:43:56.265Z,11.30
2018-10-07T08:46:23.605Z,13.17
2018-10-07T08:48:50.996Z,15.70
2018-10-07T08:51:18.350Z,14.13
2018-10-07T08:53:45.670Z,12.47
2018-10-07T08:56:13.126Z,11.37
2018-10-07T08:58:40.359Z,13.07
2018-10-07T09:01:07.784Z,19.17
2018-10-07T09:03:35.103Z,13.37
2018-10-07T09:06:02.402Z,13.97
2018-10-07T09:08:29.741Z,12.83
2018-10-07T09:10:57.061Z,12.60
2018-10-07T09:13:24.384Z,13.90
2018-10-07T09:15:51.881Z,11.57
2018-10-07T09:18:19.266Z,12.87
2018-10-07T09:20:46.621Z,12.57
2018-10-07T09:23:13.939Z,13.20
2018-10-07T09:25:41.262Z,13.27
2018-10-07T09:28:08.683Z,10.40
2018-10-07T09:30:36.301Z,11.13
2018-10-07T09:33:03.618Z,11.00
2018-10-07T09:35:31.014Z,17.43
2018-10-07T09:37:58.317Z,8.83
2018-10-07T09:40:25.626Z,13.73
2018-10-07T09:42:52.925Z,10.83
2018-10-07T09:45:20.281Z,9.37
2018-10-07T09:47:47.686Z,12.67
2018-10-07T09:50:14.981Z,12.80
2018-10-07T09:52:42.302Z,7.93
2018-10-07T09:55:09.598Z,16.80
2018-10-07T09:57:36.894Z,12.10
2018-10-07T10:00:04.249Z,13.17
2018-10-07T10:02:31.561Z,8.50
2018-10-07T10:04:58.844Z,11.17
2018-10-07T10:07:26.337Z,9.17
2018-10-07T10:09:53.652Z,13.93
2018-10-07T10:12:20.981Z,11.23
2018-10-07T10:14:48.308Z,12.83
2018-10-07T10:17:16.716Z,16.30
2018-10-07T10:19:53.829Z,11.43
2018-10-07T10:22:32.754Z,11.73
2018-10-07T10:25:20.533Z,11.97
2018-10-07T10:27:57.282Z,17.00
2018-10-07T10:30:30.285Z,11.00
2018-10-07T10:33:05.605Z,14.23
2018-10-07T10:35:43.277Z,15.80
2018-10-07T10:38:17.044Z,13.13
2018-10-07T10:40:48.917Z,11.80
2018-10-07T10:43:23.493Z,10.00
2018-10-07T10:45:57.117Z,10.50
2018-10-07T10:48:30.584Z,11.13
2018-10-07T10:51:10.201Z,11.67
2018-10-07T10:53:42.862Z,9.40
2018-10-07T10:56:24.069Z,10.13
2018-10-07T10:59:02.933Z,14.53
2018-10-07T11:01:33.543Z,12.47
2018-10-07T11:04:09.299Z,9.90
2018-10-07T11:07:18.929Z,18.83
2018-10-07T11:09:56.052Z,13.00
2018-10-07T11:12:29.714Z,16.33
2018-10-07T11:15:06.745Z,14.40
2018-10-07T11:17:38.825Z,13.47
2018-10-07T11:20:15.854Z,15.10
2018-10-07T11:22:51.785Z,12.03
2018-10-07T11:25:33.199Z,10.30
2018-10-07T11:30:29.110Z,10.67
2018-10-07T11:33:04.353Z,9.50
2018-10-07T11:35:58.115Z,11.00
2018-10-07T11:38:41.649Z,8.00
2018-10-07T11:41:27.125Z,10.57
2018-10-07T11:44:23.141Z,11.70
2018-10-07T11:47:58.935Z,11.37
2018-10-07T11:51:05.798Z,10.53
2018-10-07T11:53:41.249Z,9.00
2018-10-07T11:56:08.514Z,13.93
2018-10-07T11:58:35.760Z,11.30
2018-10-07T12:01:03.050Z,12.43
2018-10-07T12:03:30.380Z,12.53
2018-10-07T12:05:57.660Z,11.70
2018-10-07T12:08:24.942Z,11.53
2018-10-07T12:10:52.193Z,9.63
2018-10-07T12:13:19.449Z,10.07
2018-10-07T12:15:46.851Z,11.17
2018-10-07T12:18:14.150Z,8.90
2018-10-07T12:20:41.465Z,9.40
2018-10-07T12:23:08.714Z,10.77
2018-10-07T12:25:36.054Z,11.20
2018-10-07T12:28:03.341Z,10.43
2018-10-07T12:30:30.591Z,9.77
2018-10-07T12:32:57.845Z,11.27
2018-10-07T12:35:25.301Z,10.73
2018-10-07T12:37:52.629Z,8.10
2018-10-07T12:40:19.888Z,10.67
2018-10-07T12:42:47.208Z,9.20
2018-10-07T12:45:14.733Z,10.27
2018-10-07T12:47:41.989Z,9.30
2018-10-07T12:50:09.293Z,13.80
2018-10-07T12:52:37.281Z,10.10
2018-10-07T12:55:05.028Z,14.63
2018-10-07T12:57:32.321Z,10.00
2018-10-07T12:59:59.564Z,9.73
2018-10-07T13:02:26.824Z,9.13
2018-10-07T13:04:54.097Z,10.33
2018-10-07T13:07:21.400Z,14.13
2018-10-07T13:09:48.702Z,13.20
2018-10-07T13:12:15.993Z,11.70
2018-10-07T13:14:43.297Z,8.50
2018-10-07T13:17:10.604Z,10.60
2018-10-07T13:19:37.896Z,10.57
2018-10-07T13:22:05.193Z,9.33
2018-10-07T13:24:32.477Z,11.23
2018-10-07T13:26:59.753Z,9.63
2018-10-07T13:29:27.034Z,10.23
2018-10-07T13:31:54.345Z,10.77
2018-10-07T13:34:21.634Z,10.50
2018-10-07T13:36:48.929Z,13.83
2018-10-07T13:39:16.204Z,12.23
2018-10-07T13:41:43.481Z,22.10
2018-10-07T13:44:10.762Z,8.50
2018-10-07T13:46:38.037Z,9.17
2018-10-07T13:49:05.609Z,14.53
2018-10-07T13:51:32.917Z,10.50
2018-10-07T13:54:00.193Z,9.47
2018-10-07T13:56:27.604Z,9.10
2018-10-07T13:58:54.894Z,11.33
2018-10-07T14:01:22.176Z,15.53
2018-10-07T14:03:49.479Z,12.30
2018-10-07T14:06:16.761Z,11.53
2018-10-07T14:08:44.041Z,11.60
2018-10-07T14:11:11.290Z,11.97
2018-10-07T14:13:38.540Z,12.70
2018-10-07T14:16:06.186Z,11.20
2018-10-07T14:18:33.455Z,16.90
2018-10-07T14:21:00.705Z,10.37
2018-10-07T14:23:27.941Z,16.47
2018-10-07T14:25:55.202Z,12.73
2018-10-07T14:28:22.448Z,11.97
2018-10-07T14:30:49.716Z,15.60
2018-10-07T14:33:16.986Z,11.67
2018-10-07T14:35:44.251Z,12.47
2018-10-07T14:38:11.497Z,11.70
2018-10-07T14:40:38.776Z,13.37
2018-10-07T14:43:06.040Z,14.13
2018-10-07T14:45:33.429Z,13.30
2018-10-07T14:48:00.698Z,13.37
2018-10-07T14:50:27.968Z,14.60
2018-10-07T14:52:55.221Z,19.70
2018-10-07T14:55:22.493Z,20.67
2018-10-07T14:57:49.741Z,13.77
2018-10-07T15:00:17.041Z,14.40
2018-10-07T15:02:44.471Z,16.13
2018-10-07T15:05:11.739Z,20.83
2018-10-07T15:07:39.133Z,17.77
2018-10-07T15:10:06.416Z,17.00
2018-10-07T15:12:33.670Z,18.37
2018-10-07T15:15:01.359Z,14.70
2018-10-07T15:17:28.936Z,17.83
2018-10-07T15:19:56.260Z,24.50
2018-10-07T15:22:23.524Z,16.47
2018-10-07T15:24:50.783Z,19.87
2018-10-07T15:27:18.062Z,19.10
2018-10-07T15:29:45.532Z,18.50
2018-10-07T15:32:12.834Z,28.10
2018-10-07T15:34:40.169Z,21.70
2018-10-07T15:37:07.529Z,19.53
2018-10-07T15:39:34.786Z,25.20
2018-10-07T15:42:02.041Z,25.63
2018-10-07T15:44:29.293Z,22.30
2018-10-07T15:46:56.566Z,20.47
2018-10-07T15:49:23.813Z,26.37
2018-10-07T15:51:51.090Z,27.53
2018-10-07T15:54:18.688Z,25.80
2018-10-07T15:56:46.022Z,24.33
2018-10-07T15:59:13.237Z,26.43
2018-10-07T16:01:40.565Z,28.90
2018-10-07T16:04:07.839Z,22.10
2018-10-07T16:06:35.108Z,23.03
2018-10-07T16:09:02.653Z,24.30
2018-10-07T16:11:29.865Z,24.27
2018-10-07T16:13:57.115Z,25.80
2018-10-07T16:16:24.376Z,24.83
2018-10-07T16:18:51.669Z,27.90
2018-10-07T16:21:18.924Z,24.47
2018-10-07T16:23:46.217Z,22.10
2018-10-07T16:26:13.530Z,26.17
2018-10-07T16:28:41.488Z,21.23
2018-10-07T16:31:08.813Z,26.10
2018-10-07T16:33:36.062Z,23.13
2018-10-07T16:36:03.297Z,29.33
2018-10-07T16:38:30.532Z,23.53
2018-10-07T16:40:57.825Z,23.43
2018-10-07T16:43:25.072Z,24.23
2018-10-07T16:45:52.376Z,24.20
2018-10-07T16:48:19.626Z,25.60
2018-10-07T16:50:46.872Z,22.93
2018-10-07T16:53:14.117Z,29.93
2018-10-07T16:55:41.428Z,31.77
2018-10-07T16:58:08.689Z,26.53
2018-10-07T17:00:35.927Z,41.87
2018-10-07T17:03:03.173Z,42.90
2018-10-07T17:05:30.437Z,38.43
2018-10-07T17:07:57.744Z,123.60
2018-10-07T17:10:24.982Z,63.03
2018-10-07T17:12:52.286Z,25.90
2018-10-07T17:15:19.482Z,49.43
2018-10-07T17:17:46.720Z,42.37
2018-10-07T17:20:13.972Z,60.30
2018-10-07T17:22:41.214Z,31.40
2018-10-07T17:25:08.513Z,50.97
2018-10-07T17:27:35.777Z,45.70
2018-10-07T17:30:03.093Z,35.70
2018-10-07T17:32:30.348Z,34.10
2018-10-07T17:34:57.593Z,41.13
2018-10-07T17:37:24.837Z,43.03
2018-10-07T17:39:52.168Z,36.17
2018-10-07T17:42:19.419Z,33.47
2018-10-07T17:44:46.681Z,29.63
2018-10-07T17:47:13.926Z,28.17
2018-10-07T17:49:41.177Z,32.03
2018-10-07T17:52:08.517Z,33.70
2018-10-07T17:54:35.764Z,31.47
2018-10-07T17:57:03.037Z,27.93
2018-10-07T17:59:30.310Z,29.90
2018-10-07T18:01:57.625Z,29.77
2018-10-07T18:04:24.977Z,29.47
2018-10-07T18:06:52.249Z,28.30
2018-10-07T18:09:19.580Z,27.80
2018-10-07T18:11:46.953Z,30.43
2018-10-07T18:14:14.214Z,34.23
2018-10-07T18:16:41.549Z,23.30
2018-10-07T18:19:08.797Z,27.83
2018-10-07T18:21:36.047Z,31.37
2018-10-07T18:24:03.311Z,29.83
2018-10-07T18:26:30.969Z,26.13
2018-10-07T18:28:58.264Z,24.67
2018-10-07T18:31:25.568Z,27.17
2018-10-07T18:33:52.833Z,26.20
2018-10-07T18:36:20.101Z,23.90
2018-10-07T18:38:47.364Z,28.43
2018-10-07T18:41:14.630Z,26.83
2018-10-07T18:43:41.894Z,25.33
2018-10-07T18:46:09.178Z,21.03
2018-10-07T18:48:36.601Z,25.23
2018-10-07T18:51:03.798Z,26.03
2018-10-07T18:53:31.045Z,20.27
2018-10-07T18:55:58.464Z,22.13
2018-10-07T18:58:25.721Z,19.83
2018-10-07T19:00:52.990Z,21.47
2018-10-07T19:03:20.257Z,20.67
2018-10-07T19:05:47.516Z,18.93
2018-10-07T19:08:14.880Z,18.70
2018-10-07T19:10:42.125Z,22.87
2018-10-07T19:13:09.400Z,20.67
2018-10-07T19:15:36.669Z,21.73
2018-10-07T19:18:04.012Z,23.10
2018-10-07T19:20:31.264Z,23.80
2018-10-07T19:22:58.557Z,17.23
2018-10-07T19:25:25.861Z,17.57
2018-10-07T19:27:53.136Z,22.57
2018-10-07T19:30:20.405Z,16.60
2018-10-07T19:32:47.678Z,16.90
2018-10-07T19:35:14.946Z,18.20
2018-10-07T19:37:42.245Z,16.13
2018-10-07T19:40:09.546Z,11.97
2018-10-07T19:42:36.824Z,12.17
2018-10-07T19:45:04.129Z,13.73
2018-10-07T19:47:31.398Z,11.27
2018-10-07T19:49:58.677Z,9.93
2018-10-07T19:52:25.987Z,10.07
2018-10-07T19:54:53.236Z,14.37
2018-10-07T19:57:20.511Z,12.33
2018-10-07T19:59:47.890Z,11.40
2018-10-07T20:02:15.094Z,14.30
2018-10-07T20:04:42.377Z,13.50
2018-10-07T20:07:09.693Z,8.10
2018-10-07T20:09:37.006Z,10.10
2018-10-07T20:12:04.354Z,10.40
2018-10-07T20:14:31.699Z,9.33
2018-10-07T20:16:59.065Z,11.10
2018-10-07T20:19:26.439Z,10.60
2018-10-07T20:21:53.738Z,13.93
2018-10-07T20:24:21.045Z,10.93
2018-10-07T20:26:48.388Z,8.33
2018-10-07T20:29:15.680Z,10.73
2018-10-07T20:31:43.028Z,10.30
2018-10-07T20:34:10.501Z,8.13
2018-10-07T20:36:37.970Z,9.53
2018-10-07T20:39:07.194Z,8.80
2018-10-07T20:41:34.903Z,9.93
2018-10-07T20:44:02.378Z,9.20
2018-10-07T20:46:29.686Z,7.87
2018-10-07T20:48:57.029Z,8.47
2018-10-07T20:51:24.398Z,8.53
2018-10-07T20:53:51.782Z,7.97
2018-10-07T20:56:19.122Z,7.10
2018-10-07T20:58:46.449Z,9.73
2018-10-07T21:01:14.166Z,10.07
2018-10-07T21:03:41.740Z,10.53
2018-10-07T21:06:09.242Z,8.37
2018-10-07T21:08:36.877Z,7.33
2018-10-07T21:11:04.338Z,10.97
2018-10-07T21:13:31.888Z,5.73
2018-10-07T21:15:59.245Z,6.53
2018-10-07T21:18:26.564Z,6.57
2018-10-07T21:20:53.861Z,7.67
2018-10-07T21:23:21.705Z,5.90
2018-10-07T21:25:49.086Z,7.97
2018-10-07T21:28:16.385Z,7.77
2018-10-07T21:30:43.697Z,5.60
2018-10-07T21:33:11.025Z,8.20
2018-10-07T21:35:38.353Z,7.23
2018-10-07T21:38:05.641Z,7.27
2018-10-07T21:40:32.954Z,7.13
2018-10-07T21:43:00.297Z,8.30
2018-10-07T21:45:27.687Z,6.47
2018-10-07T21:47:55.000Z,8.70
2018-10-07T21:50:22.301Z,9.07
2018-10-07T21:52:49.584Z,10.83
2018-10-07T21:55:16.900Z,8.53
2018-10-07T21:57:44.415Z,11.13
2018-10-07T22:00:11.769Z,8.00
2018-10-07T22:02:39.070Z,11.03
2018-10-07T22:05:06.422Z,12.90
2018-10-07T22:07:33.781Z,11.47
2018-10-07T22:10:01.118Z,11.10
2018-10-07T22:12:28.503Z,12.00
2018-10-07T22:14:55.846Z,11.07
2018-10-07T22:17:23.166Z,11.30
2018-10-07T22:19:50.543Z,10.93
2018-10-07T22:22:17.810Z,10.30
2018-10-07T22:24:45.103Z,11.87
2018-10-07T22:27:12.464Z,10.47
2018-10-07T22:29:39.748Z,11.77
2018-10-07T22:32:07.101Z,11.77
2018-10-07T22:34:34.424Z,13.17
2018-10-07T22:37:01.729Z,12.57
2018-10-07T22:39:29.473Z,13.17
2018-10-07T22:41:56.789Z,12.10
2018-10-07T22:44:24.079Z,11.40
2018-10-07T22:46:51.882Z,15.27
2018-10-07T22:49:19.166Z,11.90
2018-10-07T22:51:46.472Z,13.77
2018-10-07T22:54:13.752Z,13.27
2018-10-07T22:56:41.309Z,15.33
2018-10-07T22:59:08.592Z,14.50
2018-10-07T23:01:35.925Z,14.17
2018-10-07T23:04:03.228Z,13.73
2018-10-07T23:06:30.550Z,15.47
2018-10-07T23:08:58.001Z,16.43
2018-10-07T23:11:25.313Z,15.83
2018-10-07T23:13:52.609Z,14.30
2018-10-07T23:16:19.896Z,14.63
2018-10-07T23:18:47.202Z,15.03
2018-10-07T23:21:14.522Z,11.87
2018-10-07T23:23:41.823Z,12.73
2018-10-07T23:26:09.132Z,15.73
2018-10-07T23:28:36.486Z,13.53
2018-10-07T23:31:04.281Z,16.47
2018-10-07T23:33:31.684Z,11.90
2018-10-07T23:35:58.986Z,13.53
2018-10-07T23:38:26.297Z,14.67
2018-10-07T23:40:54.927Z,12.73
2018-10-07T23:43:22.251Z,12.63
2018-10-07T23:45:49.646Z,12.17
2018-10-07T23:48:16.875Z,9.73
2018-10-07T23:50:44.164Z,11.00
2018-10-07T23:53:11.444Z,10.47
2018-10-07T23:55:38.718Z,9.43
2018-10-07T23:58:06.045Z,11.50
